Cancún International Airport
MMUN : now visible

Airfield :











YOU CAN JOIN US ON...

 
LOGIN :

Register | Disclaimer

   EN    FR    IT 

 









Legend :    VFR   Marginal VFR   IFR   Intensive IFR   Very Intensive IFR
Visi :
Ceiling :
>= 8 km
>= 3000ft
5 to 8 km
1000 to 3000 ft
1500m to 5 km
500 to 1000 ft
800 to 1500m
200 to 500 ft
< 800m
< 200 ft
Symbols :   Thunderstorms  Fog  Heavy snow  Heavy precipitations  Wind > 20 kt






- Airport Elevation : 20 ft
- IATA code : CUN


MMUN - Cancún International

CURRENT METAR :
  • 161315Z RTD 10010KT 7SM SCT015 27/22 A3001 RMK 8/500

EXPIRED METARs :
  • 161144Z 09008KT 7SM SCT015 26/23 A3000 RMK SLP159 52005 906 8/500
  • 161043Z 10006KT 7SM SCT015 26/22 A2999 RMK 8/500

TAF TAF MMUN
Valid from the 16 at 12:00 until the 17 at 18:00 UTC


161100Z 1612/1718 10006KT P6SM SCT015 TX29/1619Z TN25/1612Z
FM161800 12015KT P6SM BKN015
FM170600 10008KT P6SM SCT015 SCT080
BECMG 1711/1713 10006KT BKN080



MET'MAP, your aeronautical weather chart ! - Copyright ORBIFLY December 2007 - Disclaimer

ORBIFLY MET'MAP TEAM :

Programming & Development : Alexandra Zaïnal
Concept & original design : Baudouin d'Aumeries
Assistance for programming : Marc-Olivier Méhu
Technical & hardware support : Manuel Goepfert

Contact : metmap@orbifly.com




SOURCES & CREDITS :

   NOAA       Earth
Advisory